Main page
METAR-TAF:

METAR-TAF

Airports :

U-Tapao International Airport

Pattaya-Rayong, Thailand

latitude: 12-38N, longitude: 101-21E, elevation: 3 m

Current weather observation

The report was made 39 minutes ago, at 12:00 UTC
Wind 11 kt from the West/Southwest
Temperature 29°C
Humidity 74%
Pressure 1004 hPa
Visibility 10 km or more
Few clouds at a height of 2000 ft
Scattered clouds at a height of 10000 ft

METAR: VTBU 161200Z 24011KT 9999 FEW020 SCT100 29/24 Q1004 NOSIG

Time: 19:39 (12:39 UTC)

Forecast

The report was made 1 hour and 39 minutes ago, at 11:00 UTC
Forecast valid from 16 at 12 UTC to 17 at 12 UTC
Wind 6 kt from the West/Southwest
Visibility 10 km or more
Few clouds at a height of 2000 ft
Scattered clouds at a height of 10000 ft

TAF: VTBU 161100Z 1612/1712 25006KT 9999 FEW020 SCT100

Weather observations and forecasts of more than 4000 airports (METAR and TAF reports).

The available stations are represented by yellow and red dots on the map.

Hover mouse over dot to see the name of the station.

Then click to see weather observations and forecasts.

To change the map : click on the green buttons with a black cross to zoom in, on the green button with a dash to zoom out, or on the green arrows for adjacent maps.


METAR-TAF: